Time;durP1;ratioP1;P1;durP2;ratioP2;P2;SDS_P1;SDS_P2;PMS_P1;PMS_P2;Temp;Humidity;BMP_temperature;BMP_pressure;BME280_temperature;BME280_humidity;BME280_pressure;Samples;Min_cycle;Max_cycle;Signal;HPM_P1;HPM_P2
2023/06/26 00:00:56;;;;;;;;;;;27.20;99.90;;;;;;5073476;28;20359;-66
2023/06/26 00:03:23;;;;;;;;;;;27.10;99.90;;;;;;5075109;28;19927;-67
2023/06/26 00:05:50;;;;;;;;;;;27.10;99.90;;;;;;5075695;28;19909;-66
2023/06/26 00:08:16;;;;;;;;;;;27.20;99.90;;;;;;5067864;28;19954;-67
2023/06/26 00:10:42;;;;;;;;;;;27.30;99.90;;;;;;5074229;28;19995;-66
2023/06/26 00:13:12;;;;;;;;;;;27.30;99.90;;;;;;5077628;28;19908;-67
2023/06/26 00:15:38;;;;;;;;;;;27.40;99.90;;;;;;5077487;28;19904;-65
2023/06/26 00:18:04;;;;;;;;;;;27.30;99.90;;;;;;5077054;28;20341;-66
2023/06/26 00:20:33;;;;;;;;;;;27.40;99.90;;;;;;5077318;28;19910;-65
2023/06/26 00:23:00;;;;;;;;;;;27.30;99.90;;;;;;5077040;28;19904;-67
2023/06/26 00:25:26;;;;;;;71.67;29.13;;;27.30;99.90;;;;;;5075310;28;20439;-66
2023/06/26 00:27:52;;;;;;;;;;;27.30;99.90;;;;;;5076618;28;20025;-66
2023/06/26 00:30:19;;;;;;;;;;;27.40;99.90;;;;;;5076806;28;19912;-66
2023/06/26 00:32:45;;;;;;;;;;;27.50;99.90;;;;;;5076944;28;19931;-64
2023/06/26 00:35:11;;;;;;;;;;;27.50;99.90;;;;;;5076915;28;19983;-64
2023/06/26 00:37:37;;;;;;;;;;;27.60;99.90;;;;;;5072702;28;20920;-64
2023/06/26 00:40:05;;;;;;;;;;;27.60;99.90;;;;;;5075594;28;19928;-65
2023/06/26 00:42:31;;;;;;;;;;;27.70;99.90;;;;;;5068896;28;20208;-66
2023/06/26 00:44:57;;;;;;;;;;;27.70;99.90;;;;;;5072382;28;20341;-66
2023/06/26 00:47:24;;;;;;;;;;;27.60;99.90;;;;;;5070620;28;19917;-66
2023/06/26 00:49:50;;;;;;;;;;;27.50;99.90;;;;;;5065184;28;20335;-65
2023/06/26 00:52:17;;;;;;;;;;;27.50;99.90;;;;;;5068139;28;19913;-65
2023/06/26 00:54:43;;;;;;;;;;;27.60;99.90;;;;;;5068783;28;19915;-66
2023/06/26 00:57:09;;;;;;;;;;;27.70;99.90;;;;;;5063745;28;19974;-73
2023/06/26 00:59:36;;;;;;;;;;;27.80;99.90;;;;;;5066088;28;19917;-77
2023/06/26 01:02:02;;;;;;;;;;;27.80;99.90;;;;;;5070499;28;20164;-74
2023/06/26 01:04:32;;;;;;;;;;;27.80;99.90;;;;;;5066904;28;19908;-74
2023/06/26 01:06:59;;;;;;;;;;;27.80;99.90;;;;;;5066058;28;19909;-74
2023/06/26 01:09:26;;;;;;;;;;;27.90;99.90;;;;;;5062215;28;19917;-75
2023/06/26 01:11:52;;;;;;;;;;;27.90;99.90;;;;;;5071627;28;20467;-73
2023/06/26 01:14:18;;;;;;;;;;;27.80;99.90;;;;;;5069719;28;19983;-73
2023/06/26 01:16:47;;;;;;;;;;;27.80;99.90;;;;;;5075716;28;19912;-74
2023/06/26 01:19:25;;;;;;;;;;;27.80;99.90;;;;;;5076580;28;19944;-73
2023/06/26 01:21:58;;;;;;;;;;;27.90;99.90;;;;;;5076324;28;19952;-74
2023/06/26 01:24:27;;;;;;;;;;;27.80;99.90;;;;;;5076092;28;19908;-72
2023/06/26 01:26:53;;;;;;;;;;;27.90;99.90;;;;;;5074339;28;19912;-76
2023/06/26 01:29:20;;;;;;;;;;;28.00;99.90;;;;;;5074363;28;19913;-75
2023/06/26 01:31:49;;;;;;;;;;;28.10;99.90;;;;;;5073746;28;19912;-75
2023/06/26 01:34:18;;;;;;;;;;;28.10;99.90;;;;;;5064266;28;19913;-77
2023/06/26 01:36:48;;;;;;;;;;;28.10;99.90;;;;;;5075797;28;19962;-75
2023/06/26 01:39:18;;;;;;;;;;;28.00;99.90;;;;;;5076111;28;19912;-74
2023/06/26 01:41:45;;;;;;;;;;;28.10;99.90;;;;;;5075315;28;19920;-75
2023/06/26 01:44:16;;;;;;;;;;;28.20;99.90;;;;;;5075681;28;20361;-73
2023/06/26 01:46:55;;;;;;;;;;;28.10;99.90;;;;;;5075248;28;20101;-72
2023/06/26 01:49:21;;;;;;;;;;;28.20;99.90;;;;;;5072617;28;19938;-72
2023/06/26 01:52:14;;;;;;;;;;;28.20;99.90;;;;;;5074517;28;20222;-73
2023/06/26 01:54:58;;;;;;;;;;;28.20;99.90;;;;;;5071128;28;19913;-71
2023/06/26 01:57:26;;;;;;;;;;;28.10;99.90;;;;;;5068306;28;19916;-73
2023/06/26 01:59:55;;;;;;;;;;;28.10;99.90;;;;;;5072609;28;20361;-72
2023/06/26 02:02:22;;;;;;;;;;;28.20;99.90;;;;;;5071177;28;19920;-74
2023/06/26 02:04:49;;;;;;;;;;;28.10;99.90;;;;;;5059928;28;19916;-74
2023/06/26 02:07:15;;;;;;;;;;;28.10;99.90;;;;;;5073984;28;19912;-75
2023/06/26 02:09:41;;;;;;;;;;;28.20;99.90;;;;;;5076105;28;20010;-73
2023/06/26 02:12:07;;;;;;;;;;;28.20;99.90;;;;;;5074228;28;20349;-73
2023/06/26 02:14:34;;;;;;;;;;;28.10;99.90;;;;;;5075249;28;19912;-72
2023/06/26 02:17:00;;;;;;;;;;;28.10;99.90;;;;;;5073926;28;19909;-72
2023/06/26 02:19:27;;;;;;;;;;;28.10;99.90;;;;;;5072834;28;19982;-74
2023/06/26 02:21:53;;;;;;;;;;;28.00;99.90;;;;;;5067291;28;19912;-71
2023/06/26 02:24:20;;;;;;;;;;;28.10;99.90;;;;;;5072243;28;19916;-73
2023/06/26 02:26:46;;;;;;;;;;;28.20;99.90;;;;;;5066859;28;19915;-69
2023/06/26 02:29:12;;;;;;;;;;;28.20;99.90;;;;;;5066265;28;19916;-68
2023/06/26 02:31:38;;;;;;;;;;;28.20;99.90;;;;;;5069135;28;19963;-68
2023/06/26 02:34:04;;;;;;;;;;;28.20;99.90;;;;;;5070396;28;19950;-71
2023/06/26 02:36:30;;;;;;;;;;;28.30;99.90;;;;;;5070809;28;19913;-67
2023/06/26 02:38:57;;;;;;;;;;;28.40;99.90;;;;;;5069905;28;19938;-67
2023/06/26 02:41:23;;;;;;;;;;;28.50;99.90;;;;;;5070010;28;20295;-66
2023/06/26 02:43:49;;;;;;;;;;;28.50;99.90;;;;;;5072564;28;20273;-67
2023/06/26 02:46:15;;;;;;;;;;;28.60;99.90;;;;;;5069894;28;19959;-67
2023/06/26 02:48:41;;;;;;;;;;;28.70;99.90;;;;;;5072375;28;19912;-67
2023/06/26 02:51:07;;;;;;;;;;;28.80;99.90;;;;;;5073198;28;19917;-71
2023/06/26 02:53:34;;;;;;;;;;;28.70;99.90;;;;;;5073967;28;19944;-68
2023/06/26 02:56:00;;;;;;;;;;;28.70;99.90;;;;;;5074205;28;19909;-72
2023/06/26 02:58:26;;;;;;;;;;;28.90;99.90;;;;;;5072350;28;19913;-67
2023/06/26 03:00:53;;;;;;;;;;;29.00;99.90;;;;;;5073912;28;19908;-74
2023/06/26 03:03:19;;;;;;;;;;;29.10;99.90;;;;;;5073930;28;20372;-67
2023/06/26 03:05:45;;;;;;;;;;;29.20;99.90;;;;;;5073901;28;19919;-67
2023/06/26 03:08:11;;;;;;;;;;;29.20;99.90;;;;;;5073821;28;19909;-68
2023/06/26 03:10:37;;;;;;;;;;;29.20;99.90;;;;;;5072715;28;19923;-72
2023/06/26 03:13:03;;;;;;;;;;;29.40;99.90;;;;;;5069990;28;19912;-67
2023/06/26 03:15:30;;;;;;;;;;;29.40;99.90;;;;;;5065849;28;20007;-66
2023/06/26 03:17:56;;;;;;;;;;;29.50;99.90;;;;;;5068426;28;20357;-68
2023/06/26 03:20:22;;;;;;;;;;;29.60;99.90;;;;;;5071852;28;19924;-68
2023/06/26 03:22:48;;;;;;;;;;;29.70;99.90;;;;;;5070190;28;22231;-70
2023/06/26 03:25:14;;;;;;;;;;;29.70;99.90;;;;;;5066777;28;20003;-71
2023/06/26 03:27:40;;;;;;;;;;;29.80;99.90;;;;;;5073747;28;19950;-74
2023/06/26 03:30:07;;;;;;;;;;;29.80;99.90;;;;;;5063808;28;19912;-73
2023/06/26 03:32:33;;;;;;;;;;;29.90;99.90;;;;;;5061543;28;19941;-72
2023/06/26 03:35:00;;;;;;;;;;;30.00;99.90;;;;;;5071049;28;19991;-76
2023/06/26 03:37:26;;;;;;;;;;;30.20;99.90;;;;;;5058480;28;20413;-75
2023/06/26 03:39:53;;;;;;;208.50;160.77;;;30.30;99.90;;;;;;5068716;28;20404;-73
2023/06/26 03:42:20;;;;;;;947.50;818.92;;;30.20;99.90;;;;;;5067463;28;20465;-72
2023/06/26 03:44:47;;;;;;;172.20;142.30;;;30.20;99.90;;;;;;5066193;28;20100;-74
2023/06/26 03:47:13;;;;;;;236.60;165.70;;;30.30;99.90;;;;;;5066092;28;20024;-74
2023/06/26 03:49:40;;;;;;;659.45;570.65;;;30.20;99.90;;;;;;5068159;28;20032;-71
2023/06/26 03:52:07;;;;;;;1237.30;979.10;;;30.30;99.90;;;;;;5066861;28;20024;-72
2023/06/26 03:54:33;;;;;;;1329.60;986.00;;;30.30;99.90;;;;;;5049796;28;20032;-68
2023/06/26 03:57:02;;;;;;;648.08;527.38;;;30.30;99.90;;;;;;5066232;28;20389;-67
2023/06/26 03:59:28;;;;;;;868.15;635.22;;;30.40;99.90;;;;;;5065772;28;20107;-67
2023/06/26 04:01:55;;;;;;;1522.05;999.90;;;30.40;99.90;;;;;;5062691;28;20021;-67
2023/06/26 04:04:21;;;;;;;241.40;193.88;;;30.40;99.90;;;;;;5064379;28;20029;-67
2023/06/26 04:06:48;;;;;;;648.90;580.78;;;30.50;99.90;;;;;;5068246;28;20488;-65
2023/06/26 04:09:14;;;;;;;919.58;787.40;;;30.50;99.90;;;;;;5069873;28;20040;-66
2023/06/26 04:11:41;;;;;;;516.92;460.60;;;30.50;99.90;;;;;;5065730;28;20021;-65
2023/06/26 04:14:07;;;;;;;276.60;218.63;;;30.50;99.90;;;;;;5068989;28;20114;-65
2023/06/26 04:16:34;;;;;;;116.55;97.25;;;30.60;99.90;;;;;;5064422;28;20476;-67
2023/06/26 04:19:02;;;;;;;78.82;44.17;;;30.70;99.90;;;;;;5070945;28;20029;-66
2023/06/26 04:21:28;;;;;;;100.35;82.47;;;30.70;99.90;;;;;;5069446;28;20103;-70
2023/06/26 04:23:55;;;;;;;384.63;310.08;;;30.80;99.90;;;;;;5070821;28;20029;-66
2023/06/26 04:26:21;;;;;;;622.95;505.25;;;30.70;99.90;;;;;;5069945;28;20201;-71
2023/06/26 04:28:48;;;;;;;795.30;606.53;;;30.70;99.90;;;;;;5068127;28;20489;-67
2023/06/26 04:31:14;;;;;;;45.90;27.95;;;30.70;99.90;;;;;;5069943;28;20039;-67
2023/06/26 04:33:41;;;;;;;42.15;28.80;;;30.80;99.90;;;;;;5070618;28;20020;-65
2023/06/26 04:36:08;;;;;;;45.75;29.00;;;30.80;99.90;;;;;;5072331;28;20053;-67
2023/06/26 04:38:34;;;;;;;636.30;567.70;;;30.80;99.90;;;;;;5070855;28;20033;-67
2023/06/26 04:41:02;;;;;;;250.52;217.48;;;30.90;99.90;;;;;;5068811;28;20074;-66
2023/06/26 04:43:28;;;;;;;49.75;36.95;;;31.00;99.90;;;;;;5069730;28;20110;-67
2023/06/26 04:45:55;;;;;;;70.82;46.10;;;31.00;99.90;;;;;;5070670;28;20155;-69
2023/06/26 04:48:21;;;;;;;45.83;30.00;;;31.10;99.90;;;;;;5065888;28;20029;-65
2023/06/26 04:50:53;;;;;;;44.53;30.42;;;31.20;99.90;;;;;;5064368;28;20094;-64
2023/06/26 04:53:23;;;;;;;42.90;30.33;;;31.30;99.90;;;;;;5068119;28;20396;-66
2023/06/26 04:55:51;;;;;;;44.33;31.17;;;31.30;99.90;;;;;;5073654;28;20616;-68
2023/06/26 04:58:18;;;;;;;118.82;103.38;;;31.40;99.90;;;;;;5074473;28;20021;-66
2023/06/26 05:00:45;;;;;;;100.28;71.78;;;31.40;99.90;;;;;;5073646;28;20128;-69
2023/06/26 05:03:16;;;;;;;77.60;53.10;;;31.50;99.90;;;;;;5075394;28;20083;-66
2023/06/26 05:05:43;;;;;;;50.83;34.28;;;31.50;99.90;;;;;;5049367;28;20116;-66
2023/06/26 05:08:23;;;;;;;41.70;31.15;;;31.60;99.90;;;;;;5068242;28;20078;-66
2023/06/26 05:10:50;;;;;;;44.28;31.52;;;31.50;99.90;;;;;;5072764;28;20064;-65
2023/06/26 05:13:19;;;;;;;43.92;30.23;;;31.50;99.90;;;;;;5073212;28;20021;-67
2023/06/26 05:15:46;;;;;;;43.47;28.80;;;31.40;99.90;;;;;;5075422;28;20040;-68
2023/06/26 05:18:13;;;;;;;41.95;28.83;;;31.40;99.90;;;;;;5073086;28;20377;-66
2023/06/26 05:20:39;;;;;;;112.47;88.90;;;31.40;99.90;;;;;;5066787;28;20350;-66
2023/06/26 05:23:06;;;;;;;165.10;118.68;;;31.30;99.90;;;;;;5074570;28;20056;-65
2023/06/26 05:25:36;;;;;;;72.80;46.22;;;31.30;99.90;;;;;;5071684;28;20025;-64
2023/06/26 05:28:05;;;;;;;106.95;78.28;;;31.40;99.90;;;;;;5073933;28;20435;-66
2023/06/26 05:30:35;;;;;;;85.75;59.50;;;31.40;99.90;;;;;;5073015;28;20035;-70
2023/06/26 05:33:02;;;;;;;46.63;30.83;;;31.40;99.90;;;;;;5074098;28;20028;-70
2023/06/26 05:35:30;;;;;;;44.53;30.90;;;31.40;99.90;;;;;;5075475;28;20515;-69
2023/06/26 05:37:58;;;;;;;41.72;29.67;;;31.40;99.90;;;;;;5074023;28;20028;-68
2023/06/26 05:40:25;;;;;;;42.22;28.80;;;31.50;99.90;;;;;;5072059;28;20020;-68
2023/06/26 05:42:52;;;;;;;40.58;31.10;;;31.50;99.90;;;;;;5075019;28;20141;-66
2023/06/26 05:45:19;;;;;;;44.20;34.40;;;31.70;99.90;;;;;;5075179;28;20394;-66
2023/06/26 05:47:46;;;;;;;41.17;28.55;;;31.70;99.90;;;;;;5075318;28;20054;-66
2023/06/26 05:50:13;;;;;;;47.30;31.67;;;31.80;99.90;;;;;;5071049;28;20104;-69
2023/06/26 05:52:40;;;;;;;39.53;30.17;;;31.80;99.90;;;;;;5056749;28;20136;-70
2023/06/26 05:55:07;;;;;;;40.88;29.98;;;31.80;99.90;;;;;;5056421;28;20021;-71
2023/06/26 05:57:35;;;;;;;44.03;32.13;;;31.80;99.90;;;;;;5074941;28;20086;-71
2023/06/26 06:00:03;;;;;;;105.78;85.82;;;31.80;99.90;;;;;;5074311;28;20028;-72
2023/06/26 06:02:29;;;;;;;138.13;113.65;;;31.80;99.90;;;;;;5063899;28;20584;-69
2023/06/26 06:04:56;;;;;;;271.08;241.60;;;31.70;99.90;;;;;;5064145;28;20033;-72
2023/06/26 06:07:22;;;;;;;43.45;29.65;;;31.70;99.90;;;;;;5070521;28;20381;-69
2023/06/26 06:09:49;;;;;;;73.22;56.20;;;31.70;99.90;;;;;;5062253;28;20028;-70
2023/06/26 06:12:15;;;;;;;79.70;48.10;;;31.70;99.90;;;;;;5095630;23;20048;-69
2023/06/26 06:14:42;;;;;;;98.75;74.43;;;31.70;99.90;;;;;;5093562;28;20088;-69
2023/06/26 06:17:08;;;;;;;147.02;111.63;;;31.70;99.90;;;;;;5095033;28;20032;-68
2023/06/26 06:19:35;;;;;;;133.68;98.00;;;31.70;99.90;;;;;;5077603;28;20069;-70
2023/06/26 06:22:02;;;;;;;54.47;40.38;;;31.70;99.90;;;;;;5095299;28;20020;-68
2023/06/26 06:24:28;;;;;;;50.13;35.08;;;31.70;99.90;;;;;;5095333;28;20016;-68
2023/06/26 06:26:55;;;;;;;42.50;29.77;;;31.70;99.90;;;;;;5087666;28;20027;-69
2023/06/26 06:29:21;;;;;;;39.10;30.63;;;31.70;99.90;;;;;;5095589;28;20472;-68
2023/06/26 06:31:48;;;;;;;40.45;31.10;;;31.80;99.90;;;;;;5072150;28;20032;-67
2023/06/26 06:34:14;;;;;;;43.20;32.00;;;31.80;99.90;;;;;;5055629;28;20017;-69
2023/06/26 06:36:41;;;;;;;43.30;34.55;;;31.90;99.90;;;;;;5056278;28;20051;-68
2023/06/26 06:39:08;;;;;;;119.45;86.80;;;31.90;99.90;;;;;;5075548;28;20024;-67
2023/06/26 06:41:34;;;;;;;266.35;195.85;;;32.10;99.90;;;;;;5075742;28;20029;-69
2023/06/26 06:44:01;;;;;;;70.88;51.25;;;32.20;99.90;;;;;;5074008;28;20060;-67
2023/06/26 06:46:27;;;;;;;47.08;35.55;;;32.20;99.90;;;;;;5072346;28;20078;-69
2023/06/26 06:48:54;;;;;;;44.55;33.05;;;32.30;99.90;;;;;;5073967;28;20035;-69
2023/06/26 06:51:21;;;;;;;46.42;32.58;;;32.30;99.90;;;;;;5064074;28;20024;-68
2023/06/26 06:53:47;;;;;;;39.75;32.10;;;32.30;99.90;;;;;;5061514;28;20290;-69
2023/06/26 06:56:14;;;;;;;41.63;32.83;;;32.30;99.90;;;;;;5071352;28;20024;-70
2023/06/26 06:58:42;;;;;;;40.70;30.98;;;32.20;99.90;;;;;;5070813;28;20492;-68
2023/06/26 07:01:09;;;;;;;43.88;32.20;;;32.30;99.90;;;;;;5073173;28;20024;-69
2023/06/26 07:03:36;;;;;;;252.27;149.27;;;32.20;99.90;;;;;;5071812;28;20099;-69
2023/06/26 07:06:03;;;;;;;52.03;41.30;;;32.20;99.90;;;;;;5071943;28;20033;-70
2023/06/26 07:08:30;;;;;;;145.13;80.40;;;32.10;99.90;;;;;;5071159;28;20029;-68
2023/06/26 07:10:56;;;;;;;236.20;180.35;;;32.10;99.90;;;;;;5072217;28;20031;-68
2023/06/26 07:13:23;;;;;;;87.68;49.97;;;32.00;99.90;;;;;;5071729;28;20063;-70
2023/06/26 07:15:50;;;;;;;167.20;115.95;;;31.90;99.90;;;;;;5071138;28;20061;-69
2023/06/26 07:18:17;;;;;;;69.82;47.13;;;31.90;99.90;;;;;;5065630;28;20496;-69
2023/06/26 07:20:43;;;;;;;125.80;78.38;;;31.90;99.90;;;;;;5068991;28;20032;-71
2023/06/26 07:23:10;;;;;;;84.43;56.13;;;31.90;99.90;;;;;;5054446;28;20049;-73
2023/06/26 07:25:37;;;;;;;200.90;160.93;;;31.90;99.90;;;;;;5053057;28;20496;-68
2023/06/26 07:28:03;;;;;;;51.33;33.50;;;31.90;99.90;;;;;;5064960;28;20063;-70
2023/06/26 07:30:30;;;;;;;44.40;31.17;;;31.80;99.90;;;;;;5072304;28;20033;-70
2023/06/26 07:32:56;;;;;;;52.55;36.33;;;31.80;99.90;;;;;;5072818;28;20103;-70
2023/06/26 07:35:27;;;;;;;50.47;38.13;;;31.90;99.90;;;;;;5071586;28;20056;-72
2023/06/26 07:37:53;;;;;;;45.17;34.35;;;31.80;99.90;;;;;;5064850;28;20047;-74
2023/06/26 07:40:20;;;;;;;45.50;32.58;;;31.80;99.90;;;;;;5065539;28;20029;-70
2023/06/26 07:42:47;;;;;;;156.73;111.72;;;31.70;99.90;;;;;;5064661;28;20052;-69
2023/06/26 07:45:13;;;;;;;47.72;36.25;;;31.80;99.90;;;;;;5063441;28;20021;-71
2023/06/26 07:47:40;;;;;;;55.25;35.90;;;31.80;99.90;;;;;;5063968;28;20037;-70
2023/06/26 07:50:08;;;;;;;51.45;36.38;;;31.80;99.90;;;;;;5067804;23;20418;-68
2023/06/26 07:52:35;;;;;;;50.70;34.05;;;31.80;99.90;;;;;;5083361;28;20556;-70
2023/06/26 07:55:01;;;;;;;48.05;33.03;;;31.80;99.90;;;;;;5084456;28;20223;-72
2023/06/26 07:57:28;;;;;;;46.85;32.72;;;31.70;99.90;;;;;;5086705;28;20084;-72
2023/06/26 07:59:55;;;;;;;77.18;57.38;;;31.80;99.90;;;;;;5089121;28;20429;-72
2023/06/26 08:02:22;;;;;;;323.30;235.85;;;31.80;99.90;;;;;;5086692;28;20035;-70
2023/06/26 08:04:49;;;;;;;147.65;105.07;;;31.80;99.90;;;;;;5085922;28;20021;-71
2023/06/26 08:07:15;;;;;;;191.68;141.52;;;31.80;99.90;;;;;;5082307;28;20028;-71
2023/06/26 08:09:42;;;;;;;47.78;35.22;;;31.80;99.90;;;;;;5094758;28;20503;-71
2023/06/26 08:12:08;;;;;;;47.00;32.50;;;31.70;99.90;;;;;;5093513;28;20027;-71
2023/06/26 08:14:35;;;;;;;72.57;49.90;;;31.70;99.90;;;;;;5093622;28;20384;-71
2023/06/26 08:17:01;;;;;;;113.10;80.72;;;31.70;99.90;;;;;;5088942;28;20020;-71
2023/06/26 08:19:28;;;;;;;71.35;48.83;;;31.70;99.90;;;;;;5084916;28;20480;-72
2023/06/26 08:21:54;;;;;;;56.45;42.42;;;31.70;99.90;;;;;;5085090;28;20032;-73
2023/06/26 08:28:41;;;;;;;;;;;31.70;99.90;;;;;;5085111;27;21012;-66
2023/06/26 08:31:07;;;;;;;;;;;31.60;99.90;;;;;;5069546;28;20038;-65
2023/06/26 08:33:33;;;;;;;;;;;31.50;99.90;;;;;;5070373;28;19928;-69
2023/06/26 08:35:59;;;;;;;;;;;31.50;99.90;;;;;;5067706;28;19937;-65
2023/06/26 08:38:25;;;;;;;;;;;31.50;99.90;;;;;;5061853;28;19987;-67
2023/06/26 08:40:52;;;;;;;;;;;31.50;99.90;;;;;;5068574;28;19961;-66
2023/06/26 08:43:19;;;;;;;;;;;31.50;99.90;;;;;;5067840;28;20014;-66
2023/06/26 08:45:46;;;;;;;;;;;31.50;99.90;;;;;;5071265;28;19992;-67
2023/06/26 08:48:12;;;;;;;;;;;31.50;99.90;;;;;;5070184;28;20031;-67
2023/06/26 08:50:38;;;;;;;;;;;31.50;99.90;;;;;;5086241;28;20051;-68
2023/06/26 08:53:11;;;;;;;;;;;31.50;99.90;;;;;;5077883;28;19964;-67
2023/06/26 08:55:38;;;;;;;;;;;31.50;99.90;;;;;;5071227;28;19989;-67
2023/06/26 08:58:04;;;;;;;;;;;31.50;99.90;;;;;;5070354;28;19958;-67
2023/06/26 09:00:31;;;;;;;;;;;31.50;99.90;;;;;;5072371;28;19942;-67
2023/06/26 09:02:57;;;;;;;;;;;31.50;99.90;;;;;;5075479;28;19975;-66
2023/06/26 09:05:23;;;;;;;;;;;31.50;99.90;;;;;;5072183;28;19946;-66
2023/06/26 09:07:49;;;;;;;;;;;31.50;99.90;;;;;;5070275;28;19980;-67
2023/06/26 09:10:15;;;;;;;;;;;31.50;99.90;;;;;;5063359;28;19996;-67
2023/06/26 09:12:46;;;;;;;;;;;31.50;99.90;;;;;;5064450;28;19960;-73
2023/06/26 09:15:14;;;;;;;;;;;31.50;99.90;;;;;;5050843;28;20295;-69
2023/06/26 09:17:41;;;;;;;;;;;31.40;99.90;;;;;;5060551;28;20020;-67
2023/06/26 09:20:10;;;;;;;;;;;31.50;99.90;;;;;;5069421;28;20358;-66
2023/06/26 09:22:38;;;;;;;;;;;31.50;99.90;;;;;;5070767;28;19916;-72
2023/06/26 09:25:05;;;;;;;;;;;31.50;99.90;;;;;;5070680;28;20281;-69
2023/06/26 09:27:32;;;;;;;;;;;31.50;99.90;;;;;;5067980;28;19946;-72
2023/06/26 09:29:58;;;;;;;;;;;31.50;99.90;;;;;;5065467;28;19955;-66
2023/06/26 09:32:24;;;;;;;;;;;31.50;99.90;;;;;;5065953;28;19909;-66
2023/06/26 09:34:53;;;;;;;;;;;31.50;99.90;;;;;;5069467;28;19999;-67
2023/06/26 09:37:19;;;;;;;;;;;31.50;99.90;;;;;;5068728;28;19951;-69
2023/06/26 09:39:45;;;;;;;;;;;31.50;99.90;;;;;;5056382;28;19912;-67
2023/06/26 09:42:13;;;;;;;;;;;31.50;99.90;;;;;;5056332;28;19913;-65
2023/06/26 09:44:48;;;;;;;;;;;31.50;99.90;;;;;;5052825;28;19913;-69
2023/06/26 09:47:21;;;;;;;;;;;31.60;99.90;;;;;;5055815;28;19919;-66
2023/06/26 09:49:47;;;;;;;;;;;31.50;99.90;;;;;;5056828;28;19917;-66
2023/06/26 09:52:16;;;;;;;;;;;31.50;99.90;;;;;;5057224;28;19905;-67
2023/06/26 09:54:44;;;;;;;;;;;31.50;99.90;;;;;;5056081;28;19916;-67
2023/06/26 09:57:12;;;;;;;;;;;31.50;99.90;;;;;;5056385;28;19936;-65
2023/06/26 09:59:39;;;;;;;;;;;31.50;99.90;;;;;;5056305;28;20019;-68
2023/06/26 10:02:06;;;;;;;;;;;31.60;99.90;;;;;;5055602;28;20280;-66
2023/06/26 10:04:32;;;;;;;;;;;31.50;99.90;;;;;;5055237;28;19908;-66
2023/06/26 10:07:01;;;;;;;;;;;31.50;99.90;;;;;;5050788;28;19921;-67
2023/06/26 10:09:29;;;;;;;;;;;31.50;99.90;;;;;;5052512;28;19916;-66
2023/06/26 10:12:02;;;;;;;;;;;31.40;99.90;;;;;;5052877;28;20152;-67
2023/06/26 10:14:31;;;;;;;;;;;31.40;99.90;;;;;;5052526;28;19958;-68
2023/06/26 10:17:01;;;;;;;;;;;31.40;99.90;;;;;;5049312;28;20366;-69
2023/06/26 10:19:28;;;;;;;;;;;31.30;99.90;;;;;;5050528;28;20324;-67
2023/06/26 10:21:55;;;;;;;;;;;31.40;99.90;;;;;;5055546;28;20395;-67
2023/06/26 10:24:22;;;;;;;;;;;31.40;99.90;;;;;;5064075;28;20277;-68
2023/06/26 10:26:50;;;;;;;;;;;31.40;99.90;;;;;;5058299;28;19938;-67
2023/06/26 10:29:17;;;;;;;;;;;31.30;99.90;;;;;;5053691;28;19963;-66
2023/06/26 10:31:46;;;;;;;;;;;31.30;99.90;;;;;;5054473;28;19912;-67
2023/06/26 10:34:12;;;;;;;;;;;31.40;99.90;;;;;;5054344;28;19928;-67
2023/06/26 10:36:39;;;;;;;;;;;31.30;99.90;;;;;;5056134;28;19908;-66
2023/06/26 10:39:06;;;;;;;;;;;31.40;99.90;;;;;;5052872;28;19916;-66
2023/06/26 10:41:38;;;;;;;;;;;31.30;99.90;;;;;;5056179;28;19951;-68
2023/06/26 10:44:09;;;;;;;;;;;31.30;99.90;;;;;;5052715;28;19908;-68
2023/06/26 10:46:54;;;;;;;;;;;31.30;99.90;;;;;;5055962;28;19908;-69
2023/06/26 10:49:21;;;;;;;;;;;31.30;99.90;;;;;;5055529;28;20282;-69
2023/06/26 10:51:50;;;;;;;;;;;31.30;99.90;;;;;;5050690;28;19960;-68
2023/06/26 10:54:18;;;;;;;;;;;31.30;99.90;;;;;;5054850;28;19908;-66
2023/06/26 10:56:47;;;;;;;;;;;31.30;99.90;;;;;;5053588;28;20400;-67
2023/06/26 10:59:15;;;;;;;;;;;31.20;99.90;;;;;;5056293;28;19909;-67
2023/06/26 11:01:42;;;;;;;;;;;31.10;99.90;;;;;;5056043;28;20226;-68
2023/06/26 11:04:10;;;;;;;;;;;31.10;99.90;;;;;;5053187;28;19913;-68
2023/06/26 11:06:38;;;;;;;;;;;31.10;99.90;;;;;;5053656;28;19920;-67
2023/06/26 11:09:04;;;;;;;;;;;31.10;99.90;;;;;;5049994;28;19909;-67
2023/06/26 11:11:49;;;;;;;;;;;31.10;99.90;;;;;;5035921;28;19905;-67
2023/06/26 11:14:16;;;;;;;;;;;31.10;99.90;;;;;;5049239;28;19909;-65
2023/06/26 11:16:45;;;;;;;;;;;31.10;99.90;;;;;;5052991;28;19909;-67
2023/06/26 11:19:11;;;;;;;;;;;31.10;99.90;;;;;;5053835;28;19912;-68
2023/06/26 11:21:41;;;;;;;;;;;31.10;99.90;;;;;;5053601;28;20308;-67
2023/06/26 11:24:07;;;;;;;;;;;31.10;99.90;;;;;;5051563;28;19948;-68
2023/06/26 11:26:40;;;;;;;;;;;31.10;99.90;;;;;;5046828;28;19911;-68
2023/06/26 11:29:06;;;;;;;;;;;31.10;99.90;;;;;;5037812;28;20408;-67
2023/06/26 11:31:33;;;;;;;;;;;31.00;99.90;;;;;;5053178;28;19908;-68
2023/06/26 11:34:00;;;;;;;;;;;30.90;99.90;;;;;;5050447;28;19909;-68
2023/06/26 11:36:27;;;;;;;;;;;30.90;99.90;;;;;;5053221;28;19909;-68
2023/06/26 11:39:03;;;;;;;;;;;30.80;99.90;;;;;;5039998;28;19913;-68
2023/06/26 11:41:32;;;;;;;;;;;30.80;99.90;;;;;;5052049;28;20255;-69
2023/06/26 11:44:05;;;;;;;;;;;30.80;99.90;;;;;;5045739;28;20373;-67
2023/06/26 11:46:32;;;;;;;;;;;30.80;99.90;;;;;;5051855;28;19995;-66
2023/06/26 11:48:58;;;;;;;;;;;30.80;99.90;;;;;;5055152;28;19916;-67
2023/06/26 11:51:26;;;;;;;;;;;30.80;99.90;;;;;;5055453;28;19931;-68
2023/06/26 11:53:53;;;;;;;;;;;30.80;99.90;;;;;;5055509;28;19905;-69
2023/06/26 11:56:22;;;;;;;;;;;30.70;99.90;;;;;;5053382;28;20397;-67
2023/06/26 11:59:04;;;;;;;;;;;30.70;99.90;;;;;;5050877;28;19913;-67
2023/06/26 12:01:34;;;;;;;;;;;30.80;99.90;;;;;;5051625;28;19935;-68
2023/06/26 12:04:03;;;;;;;;;;;30.70;99.90;;;;;;5050245;28;19908;-68
2023/06/26 12:06:29;;;;;;;;;;;30.60;99.90;;;;;;5055350;28;19905;-66
2023/06/26 12:08:56;;;;;;;;;;;30.60;99.90;;;;;;5056245;28;19909;-68
2023/06/26 12:11:23;;;;;;;;;;;30.60;99.90;;;;;;5055266;28;19945;-68
2023/06/26 12:13:49;;;;;;;;;;;30.60;99.90;;;;;;5052049;28;19909;-68
2023/06/26 12:16:15;;;;;;;;;;;30.60;99.90;;;;;;5054186;28;19908;-68
2023/06/26 12:18:42;;;;;;;;;;;30.60;99.90;;;;;;5036074;28;19955;-70
2023/06/26 12:21:08;;;;;;;;;;;30.50;99.90;;;;;;5048346;28;19912;-68
2023/06/26 12:23:39;;;;;;;;;;;30.50;99.90;;;;;;5051740;28;19909;-68
2023/06/26 12:26:18;;;;;;;;;;;30.40;99.90;;;;;;5054427;28;19911;-69
2023/06/26 12:28:45;;;;;;;;;;;30.40;99.90;;;;;;5054261;28;20377;-68
2023/06/26 12:31:18;;;;;;;;;;;30.40;99.90;;;;;;5054357;28;20286;-67
2023/06/26 12:33:44;;;;;;;;;;;30.40;99.90;;;;;;5052628;28;19905;-68
2023/06/26 12:36:11;;;;;;;;;;;30.40;99.90;;;;;;5034550;28;19955;-68
2023/06/26 12:38:38;;;;;;;;;;;30.40;99.90;;;;;;5049068;28;19912;-68
2023/06/26 12:41:04;;;;;;;;;;;30.40;99.90;;;;;;5051815;28;19967;-70
2023/06/26 12:43:30;;;;;;;;;;;30.40;99.90;;;;;;5054542;28;19974;-67
2023/06/26 12:45:56;;;;;;;;;;;30.40;99.90;;;;;;5053051;28;19916;-65
2023/06/26 12:48:36;;;;;;;;;;;30.40;99.90;;;;;;5053374;28;19962;-66
2023/06/26 12:51:12;;;;;;;;;;;30.40;99.90;;;;;;5049943;28;19978;-66
2023/06/26 12:53:41;;;;;;;;;;;30.40;99.90;;;;;;5053244;28;19913;-65
2023/06/26 12:56:08;;;;;;;;;;;30.40;99.90;;;;;;5047936;28;19932;-67
2023/06/26 12:58:36;;;;;;;56.63;27.60;;;30.40;99.90;;;;;;5052650;28;20429;-65
2023/06/26 13:01:10;;;;;;;;;;;30.40;99.90;;;;;;5051335;28;20413;-66
2023/06/26 13:03:37;;;;;;;;;;;30.40;99.90;;;;;;5051187;28;19909;-67
2023/06/26 13:06:03;;;;;;;;;;;30.30;99.90;;;;;;5048093;28;19952;-65
2023/06/26 13:08:29;;;;;;;;;;;30.40;99.90;;;;;;5052820;28;19913;-65
2023/06/26 13:10:55;;;;;;;;;;;30.30;99.90;;;;;;5054009;28;20348;-65
2023/06/26 13:13:21;;;;;;;;;;;30.30;99.90;;;;;;5052358;28;19992;-65
2023/06/26 13:15:48;;;;;;;;;;;30.20;99.90;;;;;;5059498;28;19920;-67
2023/06/26 13:18:14;;;;;;;;;;;30.20;99.90;;;;;;5057407;28;19904;-69
2023/06/26 13:20:40;;;;;;;;;;;30.20;99.90;;;;;;5055756;28;20391;-68
2023/06/26 13:23:07;;;;;;;;;;;30.20;99.90;;;;;;5056049;28;19908;-67
2023/06/26 13:25:33;;;;;;;;;;;30.20;99.90;;;;;;5055534;28;19905;-68
2023/06/26 13:27:59;;;;;;;;;;;30.20;99.90;;;;;;5052443;28;19933;-67
2023/06/26 13:30:25;;;;;;;;;;;30.20;99.90;;;;;;5058638;28;19959;-68
2023/06/26 13:32:52;;;;;;;;;;;30.20;99.90;;;;;;5050609;28;20272;-68
2023/06/26 13:35:18;;;;;;;;;;;30.10;99.90;;;;;;5049087;28;19916;-67
2023/06/26 13:37:44;;;;;;;;;;;30.10;99.90;;;;;;5051984;28;19908;-67